aviador You're here:

KFRG Decoded Metar

FARMINGDALE in NY, USA
Report Time2018-05-23 16:13:00
UTC Time2018-05-23 16:48:21
Flight Rules vfr VFR
Wind330° at 12 kt
W.Decomp.*RWY 32: 11.0 kt HW 4.9 kt RCW
RWY 01: 10.8 kt HW 5.3 kt LCW
W.Rank330° ranks 4
Current wind is above 330° avg. (8.3)
Visibility9999 m
Phenomena:N/A
Clouds:Scattered 023 Hf
Scattered 035 Hf
Expected CloudBase > 2,800 ft AGL from Temp-Dew spread
CeilingNone
Temp23°C (ISA +8)
Dew Point16°C (65% RH)
AAT20.7°C
QNH1014 hPa
Density Alt1,224 ft
Elevation69 ft
Report Wrong Elevation
Raw Report
KFRG 231613Z 33012KT 10SM SCT023 SCT035 23/16 A2994 RMK AO2
T02280161=

Extra information for KFRG:More info

Metar Taf Metar & Taf Last 4 Metars F.Rules Stats Wind Profile Meteogram Temp Stats Airport Information Weather charts Add Link Nearby VenuesMetar ALERT Operation Metar Decoded Social comments

AIRNAV info for KFRG